Usepa Lake Guardian — WA09082 — position and weather

sailwx.info

Track history (hours):
 
Tides and Currents Weather Stations Pressure Air Temp Water Temp Dewpoint Dewpoint Depression Visibility Wind Speed Wind Dir Waves Ship Positions

Usepa Lake Guardian

Last reported at 2017-Sep-18 09:12 UTC. Time now 2017-Sep-21 05:07 UTC.
Position N 46°01' W 083°53'.

Length 53 m; draft 3.8 m.

Type: Dredging. MMSI: 338021074.

Date/timePositionNaut miles runAvg speedWind from/ knotsBaromVisibWave heightAir tempDewpointWater temp
2017-Sep-18 09:12N 46°01' W 083°53'411.5
2017-Sep-18 08:53N 45°57' W 083°53'611.5
2017-Sep-18 08:23N 45°55' W 084°01'4 9.8
2017-Sep-18 08:00N 45°54' W 084°07'2 4.5
2017-Sep-18 07:30N 45°54' W 084°10'0 0.1
2017-Sep-18 06:59N 45°54' W 084°10'2 4.5
2017-Sep-18 06:30N 45°52' W 084°11'1 1.8
2017-Sep-18 06:00N 45°51' W 084°12'0 0.8
2017-Sep-18 05:30N 45°51' W 084°12'0 0.3
2017-Sep-18 04:59N 45°51' W 084°12'611.6
2017-Sep-18 04:30N 45°54' W 084°18'0 0.8
2017-Sep-18 03:59N 45°55' W 084°18'0 0.1
2017-Sep-18 03:30N 45°55' W 084°18'510.9
2017-Sep-18 03:00N 45°51' W 084°24'3 6.5
2017-Sep-18 02:29N 45°49' W 084°28'1 1.1
2017-Sep-18 02:00N 45°49' W 084°27'0 0.2
2017-Sep-18 01:30N 45°49' W 084°27'0 0.3
2017-Sep-18 01:00N 45°49' W 084°27'2 4.4
2017-Sep-18 00:30N 45°49' W 084°24'0 0.8
2017-Sep-18 00:00N 45°49' W 084°24'0 0.3
2017-Sep-17 23:30N 45°49' W 084°23'0 0.2
2017-Sep-17 23:00N 45°49' W 084°23'611.3
2017-Sep-17 22:30N 45°48' W 084°15'612.0
2017-Sep-17 22:00N 45°47' W 084°07'611.8
2017-Sep-17 21:30N 45°45' W 083°59'2 4.4
2017-Sep-17 21:00N 45°45' W 083°56'3 3.2
2017-Sep-17 20:08N 45°44' W 083°59'0 0.2
2017-Sep-17 20:00N 45°44' W 083°59'1 1.0
2017-Sep-17 19:28N 45°43' W 083°59'0 0.1
2017-Sep-17 19:00N 45°43' W 083°59'3 6.0
2017-Sep-17 18:30N 45°41' W 084°02'3 6.4
2017-Sep-17 17:59N 45°39' W 084°05'1 1.3
2017-Sep-17 17:30N 45°40' W 084°05'0 0.1
2017-Sep-17 16:57N 45°40' W 084°05'2 4.8
2017-Sep-17 16:30N 45°39' W 084°08'1 1.4
2017-Sep-17 16:00N 45°38' W 084°08'0 0.1
2017-Sep-17 15:30N 45°38' W 084°08'2 4.3
2017-Sep-17 15:00N 45°37' W 084°11'1 1.0
2017-Sep-17 14:27N 45°37' W 084°10'2 4.9
2017-Sep-17 13:58N 45°36' W 084°07'612.1
2017-Sep-17 13:30N 45°33' W 084°00'612.1
2017-Sep-17 13:00N 45°31' W 083°52'611.8
2017-Sep-17 12:30N 45°27' W 083°45'1 1.3
2017-Sep-17 12:00N 45°27' W 083°45'0 0.6
2017-Sep-17 11:30N 45°27' W 083°45'2 3.8
2017-Sep-17 11:00N 45°28' W 083°43'1 1.5
2017-Sep-17 10:30N 45°29' W 083°42'0 0.7
2017-Sep-17 10:00N 45°29' W 083°42'0 0.3
2017-Sep-17 09:30N 45°29' W 083°42'3 5.3
2017-Sep-17 09:00N 45°31' W 083°40'612.1
2017-Sep-17 08:31N 45°35' W 083°35'611.2
2017-Sep-17 07:59N 45°40' W 083°29'0 0.6
2017-Sep-17 07:29N 45°40' W 083°29'1 0.6
2017-Sep-17 06:14N 45°41' W 083°28'311.9
2017-Sep-17 06:00N 45°42' W 083°25'12 6.5
2017-Sep-17 04:07N 45°48' W 083°10'1 4.2
2017-Sep-17 04:00N 45°48' W 083°10'812.4
2017-Sep-17 03:20N 45°41' W 083°16'412.4
2017-Sep-17 03:00N 45°37' W 083°19'612.2
2017-Sep-17 02:30N 45°32' W 083°24'1 2.8
2017-Sep-17 02:00N 45°31' W 083°25'2 4.8
2017-Sep-17 01:30N 45°29' W 083°25'612.3
2017-Sep-17 01:00N 45°23' W 083°25'3 4.9
2017-Sep-17 00:21N 45°19' W 083°26'33 3.4
2017-Sep-16 14:55N 45°41' W 082°51'  
2017-Sep-13 11:50N 44°58' W 083°15'512.2
2017-Sep-13 11:24N 44°53' W 083°12'  
2017-Sep-09 22:06N 45°23' W 083°28'112.0
2017-Sep-09 22:00N 45°24' W 083°29'612.0
2017-Sep-09 21:30N 45°26' W 083°37'612.0
2017-Sep-09 21:00N 45°29' W 083°44'3411.8
2017-Sep-09 18:08N 45°43' W 084°29'212.0
2017-Sep-09 18:00N 45°43' W 084°31'612.0
2017-Sep-09 17:29N 45°47' W 084°38'612.0
2017-Sep-09 17:00N 45°49' W 084°46'612.1
2017-Sep-09 16:30N 45°49' W 084°55'612.1
2017-Sep-09 16:00N 45°50' W 085°03'5 9.8
2017-Sep-09 15:30N 45°47' W 085°09'611.9
2017-Sep-09 15:00N 45°42' W 085°13'612.2
2017-Sep-09 14:30N 45°37' W 085°19'612.1
2017-Sep-09 14:00N 45°32' W 085°24'612.2
2017-Sep-09 13:30N 45°27' W 085°29'612.2
2017-Sep-09 13:00N 45°22' W 085°34'612.1
2017-Sep-09 12:30N 45°17' W 085°39'  
Track history (hours):
 
Tides and Currents Weather Stations Pressure Air Temp Water Temp Dewpoint Dewpoint Depression Visibility Wind Speed Wind Dir Waves Ship Positions

Usepa Lake Guardian

Last reported at 2017-Sep-18 09:12 UTC. Time now 2017-Sep-21 05:07 UTC.
Position N 46°01' W 083°53'.

Length 53 m; draft 3.8 m.

Type: Dredging. MMSI: 338021074.

Date/timePositionNaut miles runAvg speedWind from/ knotsBaromVisibWave heightAir tempDewpointWater temp
2017-Sep-18 09:12N 46°01' W 083°53'411.5
2017-Sep-18 08:53N 45°57' W 083°53'611.5
2017-Sep-18 08:23N 45°55' W 084°01'4 9.8
2017-Sep-18 08:00N 45°54' W 084°07'2 4.5
2017-Sep-18 07:30N 45°54' W 084°10'0 0.1
2017-Sep-18 06:59N 45°54' W 084°10'2 4.5
2017-Sep-18 06:30N 45°52' W 084°11'1 1.8
2017-Sep-18 06:00N 45°51' W 084°12'0 0.8
2017-Sep-18 05:30N 45°51' W 084°12'0 0.3
2017-Sep-18 04:59N 45°51' W 084°12'611.6
2017-Sep-18 04:30N 45°54' W 084°18'0 0.8
2017-Sep-18 03:59N 45°55' W 084°18'0 0.1
2017-Sep-18 03:30N 45°55' W 084°18'510.9
2017-Sep-18 03:00N 45°51' W 084°24'3 6.5
2017-Sep-18 02:29N 45°49' W 084°28'1 1.1
2017-Sep-18 02:00N 45°49' W 084°27'0 0.2
2017-Sep-18 01:30N 45°49' W 084°27'0 0.3
2017-Sep-18 01:00N 45°49' W 084°27'2 4.4
2017-Sep-18 00:30N 45°49' W 084°24'0 0.8
2017-Sep-18 00:00N 45°49' W 084°24'0 0.3
2017-Sep-17 23:30N 45°49' W 084°23'0 0.2
2017-Sep-17 23:00N 45°49' W 084°23'611.3
2017-Sep-17 22:30N 45°48' W 084°15'612.0
2017-Sep-17 22:00N 45°47' W 084°07'611.8
2017-Sep-17 21:30N 45°45' W 083°59'2 4.4
2017-Sep-17 21:00N 45°45' W 083°56'3 3.2
2017-Sep-17 20:08N 45°44' W 083°59'0 0.2
2017-Sep-17 20:00N 45°44' W 083°59'1 1.0
2017-Sep-17 19:28N 45°43' W 083°59'0 0.1
2017-Sep-17 19:00N 45°43' W 083°59'3 6.0
2017-Sep-17 18:30N 45°41' W 084°02'3 6.4
2017-Sep-17 17:59N 45°39' W 084°05'1 1.3
2017-Sep-17 17:30N 45°40' W 084°05'0 0.1
2017-Sep-17 16:57N 45°40' W 084°05'2 4.8
2017-Sep-17 16:30N 45°39' W 084°08'1 1.4
2017-Sep-17 16:00N 45°38' W 084°08'0 0.1
2017-Sep-17 15:30N 45°38' W 084°08'2 4.3
2017-Sep-17 15:00N 45°37' W 084°11'1 1.0
2017-Sep-17 14:27N 45°37' W 084°10'2 4.9
2017-Sep-17 13:58N 45°36' W 084°07'612.1
2017-Sep-17 13:30N 45°33' W 084°00'612.1
2017-Sep-17 13:00N 45°31' W 083°52'611.8
2017-Sep-17 12:30N 45°27' W 083°45'1 1.3
2017-Sep-17 12:00N 45°27' W 083°45'0 0.6
2017-Sep-17 11:30N 45°27' W 083°45'2 3.8
2017-Sep-17 11:00N 45°28' W 083°43'1 1.5
2017-Sep-17 10:30N 45°29' W 083°42'0 0.7
2017-Sep-17 10:00N 45°29' W 083°42'0 0.3
2017-Sep-17 09:30N 45°29' W 083°42'3 5.3
2017-Sep-17 09:00N 45°31' W 083°40'612.1
2017-Sep-17 08:31N 45°35' W 083°35'611.2
2017-Sep-17 07:59N 45°40' W 083°29'0 0.6
2017-Sep-17 07:29N 45°40' W 083°29'1 0.6
2017-Sep-17 06:14N 45°41' W 083°28'311.9
2017-Sep-17 06:00N 45°42' W 083°25'12 6.5
2017-Sep-17 04:07N 45°48' W 083°10'1 4.2
2017-Sep-17 04:00N 45°48' W 083°10'812.4
2017-Sep-17 03:20N 45°41' W 083°16'412.4
2017-Sep-17 03:00N 45°37' W 083°19'612.2
2017-Sep-17 02:30N 45°32' W 083°24'1 2.8
2017-Sep-17 02:00N 45°31' W 083°25'2 4.8
2017-Sep-17 01:30N 45°29' W 083°25'612.3
2017-Sep-17 01:00N 45°23' W 083°25'3 4.9
2017-Sep-17 00:21N 45°19' W 083°26'33 3.4
2017-Sep-16 14:55N 45°41' W 082°51'  
2017-Sep-13 11:50N 44°58' W 083°15'512.2
2017-Sep-13 11:24N 44°53' W 083°12'  
2017-Sep-09 22:06N 45°23' W 083°28'112.0
2017-Sep-09 22:00N 45°24' W 083°29'612.0
2017-Sep-09 21:30N 45°26' W 083°37'612.0
2017-Sep-09 21:00N 45°29' W 083°44'3411.8
2017-Sep-09 18:08N 45°43' W 084°29'212.0
2017-Sep-09 18:00N 45°43' W 084°31'612.0
2017-Sep-09 17:29N 45°47' W 084°38'612.0
2017-Sep-09 17:00N 45°49' W 084°46'612.1
2017-Sep-09 16:30N 45°49' W 084°55'612.1
2017-Sep-09 16:00N 45°50' W 085°03'5 9.8
2017-Sep-09 15:30N 45°47' W 085°09'611.9
2017-Sep-09 15:00N 45°42' W 085°13'612.2
2017-Sep-09 14:30N 45°37' W 085°19'612.1
2017-Sep-09 14:00N 45°32' W 085°24'612.2
2017-Sep-09 13:30N 45°27' W 085°29'612.2
2017-Sep-09 13:00N 45°22' W 085°34'612.1
2017-Sep-09 12:30N 45°17' W 085°39'  

Dump ship's entire track history